createdAt,value
2022-12-24T00:00:59.563Z,16.85
2022-12-24T00:02:03.144Z,16.30
2022-12-24T00:03:05.773Z,18.35
2022-12-24T00:04:09.296Z,17.35
2022-12-24T00:05:18.720Z,17.90
2022-12-24T00:06:23.264Z,17.42
2022-12-24T00:07:32.721Z,17.67
2022-12-24T00:08:35.365Z,17.52
2022-12-24T00:09:45.717Z,17.38
2022-12-24T00:10:50.275Z,16.63
2022-12-24T00:12:00.721Z,16.25
2022-12-24T00:13:03.216Z,15.43
2022-12-24T00:14:08.002Z,17.08
2022-12-24T00:15:10.883Z,17.80
2022-12-24T00:16:14.331Z,16.25
2022-12-24T00:17:23.715Z,17.15
2022-12-24T00:18:33.717Z,17.80
2022-12-24T00:19:36.231Z,17.80
2022-12-24T00:20:39.650Z,17.50
2022-12-24T00:21:42.150Z,17.95
2022-12-24T00:22:51.718Z,15.95
2022-12-24T00:24:00.708Z,18.10
2022-12-24T00:25:04.124Z,16.77
2022-12-24T00:26:06.623Z,19.60
2022-12-24T00:27:10.054Z,18.98
2022-12-24T00:28:13.050Z,18.98
2022-12-24T00:29:24.714Z,17.25
2022-12-24T00:30:27.198Z,18.67
2022-12-24T00:31:33.112Z,17.95
2022-12-24T00:32:35.780Z,16.02
2022-12-24T00:33:39.528Z,16.65
2022-12-24T00:34:48.731Z,17.48
2022-12-24T00:35:59.880Z,17.58
2022-12-24T00:37:02.395Z,15.65
2022-12-24T00:38:05.834Z,15.73
2022-12-24T00:39:15.093Z,16.52
2022-12-24T00:40:19.066Z,16.35
2022-12-24T00:41:25.484Z,16.30
2022-12-24T00:42:29.368Z,16.63
2022-12-24T00:43:32.001Z,16.33
2022-12-24T00:44:43.771Z,16.65
2022-12-24T00:45:46.349Z,16.08
2022-12-24T00:46:49.938Z,18.25
2022-12-24T00:47:52.410Z,18.63
2022-12-24T00:48:56.175Z,18.10
2022-12-24T00:50:05.762Z,17.23
2022-12-24T00:51:09.201Z,18.23
2022-12-24T00:52:12.628Z,18.15
2022-12-24T00:53:15.131Z,18.92
2022-12-24T00:54:18.554Z,18.23
2022-12-24T00:55:27.738Z,18.48
2022-12-24T00:56:31.259Z,17.90
2022-12-24T00:57:33.750Z,17.80
2022-12-24T00:58:37.248Z,17.23
2022-12-24T00:59:41.022Z,18.38
2022-12-24T01:00:50.744Z,16.83
2022-12-24T01:01:53.364Z,17.52
2022-12-24T01:02:57.143Z,16.52
2022-12-24T01:04:14.689Z,17.70
2022-12-24T01:05:27.770Z,16.45
2022-12-24T01:06:31.157Z,16.15
2022-12-24T01:07:33.650Z,15.45
2022-12-24T01:08:37.579Z,17.58
2022-12-24T01:09:40.108Z,16.50
2022-12-24T01:10:49.710Z,17.15
2022-12-24T01:11:52.208Z,17.25
2022-12-24T01:12:55.608Z,17.48
2022-12-24T01:13:58.180Z,17.42
2022-12-24T01:15:03.050Z,17.08
2022-12-24T01:16:20.855Z,16.75
2022-12-24T01:17:24.357Z,15.65
2022-12-24T01:18:33.720Z,15.88
2022-12-24T01:19:37.280Z,17.70
2022-12-24T01:20:39.779Z,16.08
2022-12-24T01:21:43.214Z,18.55
2022-12-24T01:22:52.742Z,17.80
2022-12-24T01:23:56.220Z,17.70
2022-12-24T01:24:58.790Z,17.25
2022-12-24T01:26:02.740Z,17.17
2022-12-24T01:27:05.268Z,17.48
2022-12-24T01:28:14.730Z,17.55
2022-12-24T01:29:17.413Z,16.33
2022-12-24T01:30:22.229Z,17.23
2022-12-24T01:31:24.929Z,18.60
2022-12-24T01:32:34.745Z,16.70
2022-12-24T01:33:43.763Z,17.42
2022-12-24T01:34:47.186Z,17.20
2022-12-24T01:36:09.730Z,19.20
2022-12-24T01:37:19.725Z,14.98
2022-12-24T01:38:22.204Z,16.00
2022-12-24T01:39:31.751Z,15.05
2022-12-24T01:40:52.798Z,16.55
2022-12-24T01:42:14.098Z,17.67
2022-12-24T01:44:37.713Z,15.55
2022-12-24T01:45:45.872Z,16.65
2022-12-24T01:46:50.193Z,15.82
2022-12-24T01:47:52.714Z,15.18
2022-12-24T01:49:03.744Z,16.52
2022-12-24T01:50:21.760Z,15.75
2022-12-24T01:51:27.925Z,15.75
2022-12-24T01:52:32.027Z,17.42
2022-12-24T01:53:37.051Z,17.05
2022-12-24T01:54:49.727Z,16.90
2022-12-24T01:55:52.984Z,17.10
2022-12-24T01:57:05.794Z,18.00
2022-12-24T01:58:09.100Z,18.42
2022-12-24T01:59:13.852Z,19.10
2022-12-24T02:00:17.079Z,19.48
2022-12-24T02:01:21.921Z,19.20
2022-12-24T02:02:32.007Z,18.60
2022-12-24T02:03:35.718Z,17.42
2022-12-24T02:04:40.315Z,19.23
2022-12-24T02:05:47.990Z,21.30
2022-12-24T02:06:50.627Z,19.67
2022-12-24T02:08:00.738Z,21.10
2022-12-24T02:09:03.316Z,21.35
2022-12-24T02:10:07.337Z,22.13
2022-12-24T02:11:10.977Z,20.75
2022-12-24T02:12:14.558Z,22.60
2022-12-24T02:13:24.735Z,21.48
2022-12-24T02:14:29.236Z,20.35
2022-12-24T02:15:35.952Z,19.45
2022-12-24T02:16:46.019Z,19.98
2022-12-24T02:18:00.776Z,20.45
2022-12-24T02:19:12.906Z,20.80
2022-12-24T02:20:36.748Z,19.77
2022-12-24T02:21:58.156Z,19.45
2022-12-24T02:23:24.346Z,19.33
2022-12-24T02:24:54.773Z,19.85
2022-12-24T02:26:08.258Z,18.38
2022-12-24T02:27:32.581Z,18.48
2022-12-24T02:28:48.728Z,18.70
2022-12-24T02:30:10.079Z,18.48
2022-12-24T02:31:16.884Z,18.08
2022-12-24T02:32:23.403Z,20.05
2022-12-24T02:33:36.717Z,20.00
2022-12-24T02:34:42.520Z,19.52
2022-12-24T02:35:47.443Z,18.98
2022-12-24T02:36:54.586Z,18.67
2022-12-24T02:38:05.739Z,18.65
2022-12-24T02:39:12.877Z,18.65
2022-12-24T02:40:17.488Z,18.13
2022-12-24T02:41:23.877Z,17.90
2022-12-24T02:42:30.765Z,18.75
2022-12-24T02:43:43.709Z,20.15
2022-12-24T02:45:02.863Z,19.02
2022-12-24T02:46:09.197Z,18.25
2022-12-24T02:47:14.731Z,18.27
2022-12-24T02:48:25.756Z,18.58
2022-12-24T02:49:28.361Z,17.88
2022-12-24T02:50:38.775Z,18.83
2022-12-24T02:51:41.330Z,17.13
2022-12-24T02:52:46.145Z,17.30
2022-12-24T02:53:48.709Z,15.52
2022-12-24T02:54:52.151Z,15.07
2022-12-24T02:56:08.802Z,15.65
2022-12-24T02:57:18.944Z,17.20
2022-12-24T02:58:27.404Z,16.20
2022-12-24T02:59:38.190Z,15.20
2022-12-24T03:00:45.132Z,15.02
2022-12-24T03:01:59.953Z,14.93
2022-12-24T03:03:21.257Z,14.30
2022-12-24T03:04:39.637Z,14.10
2022-12-24T03:05:46.498Z,12.15
2022-12-24T03:06:58.745Z,11.52
2022-12-24T03:08:04.487Z,9.27
2022-12-24T03:09:11.109Z,10.43
2022-12-24T03:10:20.358Z,11.30
2022-12-24T03:11:22.965Z,12.55
2022-12-24T03:12:35.764Z,11.30
2022-12-24T03:13:39.672Z,12.65
2022-12-24T03:14:42.841Z,12.40
2022-12-24T03:15:47.455Z,13.32
2022-12-24T03:16:50.460Z,14.05
2022-12-24T03:18:01.753Z,15.10
2022-12-24T03:19:05.943Z,14.82
2022-12-24T03:20:10.438Z,16.58
2022-12-24T03:21:14.986Z,17.33
2022-12-24T03:22:20.002Z,18.45
2022-12-24T03:23:28.791Z,18.92
2022-12-24T03:24:32.238Z,18.27
2022-12-24T03:25:35.193Z,17.55
2022-12-24T03:26:38.762Z,17.65
2022-12-24T03:27:41.713Z,18.00
2022-12-24T03:28:51.773Z,19.65
2022-12-24T03:29:54.424Z,17.17
2022-12-24T03:30:58.004Z,18.05
2022-12-24T03:32:01.835Z,19.08
2022-12-24T03:33:05.423Z,19.30
2022-12-24T03:34:15.803Z,19.73
2022-12-24T03:35:19.338Z,18.55
2022-12-24T03:36:22.008Z,18.05
2022-12-24T03:37:25.633Z,18.10
2022-12-24T03:38:28.259Z,19.02
2022-12-24T03:39:37.756Z,18.20
2022-12-24T03:40:40.281Z,18.88
2022-12-24T03:41:43.775Z,18.42
2022-12-24T03:42:46.343Z,17.42
2022-12-24T03:43:49.760Z,17.38
2022-12-24T03:45:05.763Z,18.20
2022-12-24T03:46:22.827Z,16.90
2022-12-24T03:47:25.417Z,15.68
2022-12-24T03:48:32.754Z,15.15
2022-12-24T03:49:37.037Z,15.48
2022-12-24T03:50:40.459Z,13.93
2022-12-24T03:51:49.748Z,12.50
2022-12-24T03:52:53.384Z,13.00
2022-12-24T03:53:57.477Z,12.98
2022-12-24T03:55:01.005Z,12.60
2022-12-24T03:56:09.785Z,13.82
2022-12-24T03:57:13.227Z,12.68
2022-12-24T03:58:15.857Z,12.73
2022-12-24T03:59:19.283Z,11.98
2022-12-24T04:00:21.991Z,12.75
2022-12-24T04:01:31.924Z,12.07
2022-12-24T04:02:34.853Z,12.40
2022-12-24T04:03:38.415Z,14.18
2022-12-24T04:04:42.218Z,12.50
2022-12-24T04:05:45.660Z,13.00
2022-12-24T04:06:54.769Z,13.60
2022-12-24T04:07:58.167Z,13.85
2022-12-24T04:09:04.972Z,14.20
2022-12-24T04:10:09.223Z,13.70
2022-12-24T04:11:12.816Z,12.60
2022-12-24T04:12:22.735Z,14.90
2022-12-24T04:13:25.301Z,14.50
2022-12-24T04:14:28.887Z,15.32
2022-12-24T04:15:31.353Z,15.70
2022-12-24T04:16:41.844Z,16.13
2022-12-24T04:17:44.511Z,15.88
2022-12-24T04:18:48.103Z,16.65
2022-12-24T04:19:51.911Z,15.82
2022-12-24T04:20:55.359Z,17.52
2022-12-24T04:22:04.770Z,15.93
2022-12-24T04:23:08.198Z,16.98
2022-12-24T04:24:10.706Z,16.58
2022-12-24T04:25:14.265Z,17.63
2022-12-24T04:26:17.001Z,16.17
2022-12-24T04:27:30.335Z,16.63
2022-12-24T04:28:33.761Z,15.15
2022-12-24T04:29:37.179Z,14.82
2022-12-24T04:30:40.097Z,15.55
2022-12-24T04:31:49.763Z,14.73
2022-12-24T04:32:52.245Z,15.45
2022-12-24T04:33:55.651Z,15.13
2022-12-24T04:34:59.455Z,15.68
2022-12-24T04:36:09.755Z,15.70
2022-12-24T04:37:20.750Z,14.27
2022-12-24T04:38:23.319Z,13.60
2022-12-24T04:39:26.748Z,12.90
2022-12-24T04:40:29.227Z,11.30
2022-12-24T04:41:38.742Z,12.32
2022-12-24T04:42:41.369Z,11.10
2022-12-24T04:43:44.805Z,12.48
2022-12-24T04:45:00.749Z,11.13
2022-12-24T04:46:14.869Z,11.02
2022-12-24T04:47:17.490Z,10.32
2022-12-24T04:48:20.959Z,11.10
2022-12-24T04:49:29.797Z,10.43
2022-12-24T04:50:34.555Z,10.73
2022-12-24T04:51:37.053Z,10.20
2022-12-24T04:52:40.545Z,11.18
2022-12-24T04:53:43.613Z,11.55
2022-12-24T04:54:53.772Z,11.57
2022-12-24T04:55:56.256Z,12.20
2022-12-24T04:56:59.693Z,9.95
2022-12-24T04:58:02.211Z,10.13
2022-12-24T04:59:11.754Z,8.65
2022-12-24T05:00:14.620Z,8.75
2022-12-24T05:01:20.725Z,10.10
2022-12-24T05:02:23.520Z,9.48
2022-12-24T05:03:27.407Z,9.77
2022-12-24T05:04:36.764Z,9.40
2022-12-24T05:05:41.509Z,8.95
2022-12-24T05:06:44.298Z,9.52
2022-12-24T05:07:47.850Z,8.70
2022-12-24T05:08:50.751Z,9.35
2022-12-24T05:10:00.792Z,9.35
2022-12-24T05:11:03.414Z,9.80
2022-12-24T05:12:07.049Z,9.15
2022-12-24T05:13:09.690Z,9.45
2022-12-24T05:14:19.779Z,9.15
2022-12-24T05:15:22.468Z,9.23
2022-12-24T05:16:26.286Z,9.00
2022-12-24T05:17:28.825Z,9.38
2022-12-24T05:18:32.245Z,10.10
2022-12-24T05:19:41.737Z,9.95
2022-12-24T05:20:46.474Z,10.07
2022-12-24T05:22:15.766Z,10.57
2022-12-24T05:23:37.419Z,10.40
2022-12-24T05:24:58.615Z,9.98
2022-12-24T05:26:19.980Z,10.18
2022-12-24T05:27:29.763Z,9.93
2022-12-24T05:28:32.393Z,10.43
2022-12-24T05:29:42.772Z,10.20
2022-12-24T05:30:45.356Z,9.55
2022-12-24T05:31:48.902Z,10.15
2022-12-24T05:32:57.762Z,9.60
2022-12-24T05:34:01.435Z,9.05
2022-12-24T05:35:10.834Z,9.57
2022-12-24T05:36:15.700Z,7.85
2022-12-24T05:37:18.185Z,8.48
2022-12-24T05:38:21.619Z,8.43
2022-12-24T05:39:30.750Z,7.50
2022-12-24T05:40:34.371Z,7.85
2022-12-24T05:41:36.871Z,7.57
2022-12-24T05:42:46.767Z,8.68
2022-12-24T05:43:49.493Z,8.48
2022-12-24T05:44:59.750Z,7.28
2022-12-24T05:46:09.155Z,8.50
2022-12-24T05:47:25.759Z,8.13
2022-12-24T05:48:28.679Z,7.97
2022-12-24T05:49:32.147Z,7.43
2022-12-24T05:50:41.834Z,7.60
2022-12-24T05:51:47.336Z,7.25
2022-12-24T05:52:49.832Z,6.80
2022-12-24T05:53:53.477Z,7.65
2022-12-24T05:54:56.072Z,8.13
2022-12-24T05:56:10.817Z,8.23
2022-12-24T05:57:13.504Z,8.65
2022-12-24T05:58:17.273Z,8.23
2022-12-24T05:59:19.780Z,8.50
2022-12-24T06:00:23.312Z,9.00
2022-12-24T06:01:32.799Z,8.73
2022-12-24T06:02:36.391Z,8.30
2022-12-24T06:03:39.165Z,8.32
2022-12-24T06:04:42.620Z,7.68
2022-12-24T06:05:45.147Z,8.00
2022-12-24T06:06:56.783Z,8.50
2022-12-24T06:07:59.376Z,9.35
2022-12-24T06:09:02.903Z,9.50
2022-12-24T06:10:05.714Z,9.65
2022-12-24T06:11:10.053Z,10.50
2022-12-24T06:12:18.761Z,15.45
2022-12-24T06:13:22.236Z,12.75
2022-12-24T06:14:25.686Z,11.02
2022-12-24T06:15:28.230Z,11.13
2022-12-24T06:16:31.885Z,12.40
2022-12-24T06:17:40.763Z,10.57
2022-12-24T06:18:44.540Z,10.82
2022-12-24T06:19:53.822Z,11.98
2022-12-24T06:20:58.075Z,12.52
2022-12-24T06:22:01.891Z,11.40
2022-12-24T06:23:05.315Z,10.50
2022-12-24T06:24:09.040Z,10.10
2022-12-24T06:25:32.771Z,11.13
2022-12-24T06:26:43.036Z,10.38
2022-12-24T06:27:45.526Z,10.95
2022-12-24T06:28:49.529Z,11.57
2022-12-24T06:29:58.811Z,12.15
2022-12-24T06:31:03.719Z,11.95
2022-12-24T06:32:06.460Z,12.23
2022-12-24T06:33:10.094Z,11.70
2022-12-24T06:34:12.584Z,12.25
2022-12-24T06:35:22.838Z,13.18
2022-12-24T06:36:26.579Z,12.52
2022-12-24T06:37:31.305Z,12.43
2022-12-24T06:38:34.033Z,15.20
2022-12-24T06:39:37.474Z,16.73
2022-12-24T06:40:46.826Z,16.55
2022-12-24T06:41:50.214Z,17.25
2022-12-24T06:42:52.772Z,17.10
2022-12-24T06:43:56.460Z,15.45
2022-12-24T06:45:08.655Z,15.38
2022-12-24T06:46:25.894Z,16.38
2022-12-24T06:47:28.471Z,14.50
2022-12-24T06:48:31.996Z,14.90
2022-12-24T06:49:34.493Z,14.13
2022-12-24T06:50:37.973Z,14.52
2022-12-24T06:51:46.768Z,14.40
2022-12-24T06:52:57.781Z,14.27
2022-12-24T06:54:00.538Z,13.43
2022-12-24T06:55:04.176Z,13.95
2022-12-24T06:56:07.999Z,14.20
2022-12-24T06:57:18.264Z,14.75
2022-12-24T06:58:20.821Z,13.70
2022-12-24T06:59:24.464Z,14.75
2022-12-24T07:00:26.999Z,15.75
2022-12-24T07:01:30.516Z,15.88
2022-12-24T07:02:39.868Z,15.93
2022-12-24T07:03:49.837Z,15.00
2022-12-24T07:04:52.436Z,18.77
2022-12-24T07:05:55.960Z,19.38
2022-12-24T07:06:58.634Z,20.92
2022-12-24T07:08:03.594Z,23.30
2022-12-24T07:09:12.773Z,24.75
2022-12-24T07:10:17.399Z,24.48
2022-12-24T07:11:21.232Z,24.70
2022-12-24T07:12:23.726Z,25.08
2022-12-24T07:13:27.168Z,24.77
2022-12-24T07:14:36.775Z,24.60
2022-12-24T07:15:40.637Z,24.27
2022-12-24T07:16:44.483Z,24.23
2022-12-24T07:17:47.172Z,26.55
2022-12-24T07:18:50.699Z,24.25
2022-12-24T07:19:59.786Z,25.38
2022-12-24T07:21:11.834Z,25.77
2022-12-24T07:22:15.913Z,26.23
2022-12-24T07:23:20.839Z,26.60
2022-12-24T07:24:23.379Z,28.00
2022-12-24T07:25:26.964Z,28.42
2022-12-24T07:26:35.790Z,27.45
2022-12-24T07:27:39.302Z,29.70
2022-12-24T07:28:41.798Z,28.65
2022-12-24T07:29:45.253Z,27.98
2022-12-24T07:30:55.854Z,27.60
2022-12-24T07:31:59.434Z,27.30
2022-12-24T07:33:02.101Z,25.33
2022-12-24T07:34:05.546Z,26.73
2022-12-24T07:35:08.271Z,26.88
2022-12-24T07:36:20.840Z,26.58
2022-12-24T07:37:23.412Z,23.85
2022-12-24T07:38:28.221Z,24.73
2022-12-24T07:39:30.901Z,23.83
2022-12-24T07:40:36.023Z,21.92
2022-12-24T07:41:44.817Z,19.65
2022-12-24T07:42:48.208Z,21.75
2022-12-24T07:43:50.693Z,21.08
2022-12-24T07:45:00.932Z,22.63
2022-12-24T07:46:16.808Z,21.83
2022-12-24T07:47:26.794Z,21.80
2022-12-24T07:48:29.908Z,20.40
2022-12-24T07:49:33.474Z,22.00
2022-12-24T07:50:35.977Z,21.27
2022-12-24T07:51:46.840Z,21.90
2022-12-24T07:52:49.337Z,21.02
2022-12-24T07:53:54.146Z,19.33
2022-12-24T07:54:56.656Z,20.77
2022-12-24T07:56:00.102Z,21.10
2022-12-24T07:57:08.815Z,22.80
2022-12-24T07:58:12.424Z,21.90
2022-12-24T07:59:15.278Z,22.33
2022-12-24T08:00:19.023Z,21.88
2022-12-24T08:01:21.629Z,20.90
2022-12-24T08:02:32.048Z,21.30
2022-12-24T08:03:34.890Z,21.80
2022-12-24T08:04:38.380Z,20.55
2022-12-24T08:05:41.087Z,20.67
2022-12-24T08:06:44.634Z,22.30
2022-12-24T08:07:53.897Z,20.85
2022-12-24T08:08:58.673Z,22.08
2022-12-24T08:10:01.204Z,22.33
2022-12-24T08:11:05.316Z,24.00
2022-12-24T08:12:14.860Z,21.20
2022-12-24T08:13:18.661Z,21.40
2022-12-24T08:14:21.204Z,21.50
2022-12-24T08:15:30.789Z,21.13
2022-12-24T08:16:34.661Z,21.42
2022-12-24T08:17:37.279Z,20.77
2022-12-24T08:18:53.869Z,20.77
2022-12-24T08:19:56.354Z,21.00
2022-12-24T08:20:59.824Z,21.42
2022-12-24T08:22:02.333Z,21.63
2022-12-24T08:23:06.341Z,23.00
2022-12-24T08:24:17.813Z,26.58
2022-12-24T08:25:20.658Z,18.88
2022-12-24T08:26:24.112Z,17.30
2022-12-24T08:27:26.596Z,18.02
2022-12-24T08:28:30.085Z,16.60
2022-12-24T08:29:39.877Z,15.93
2022-12-24T08:30:43.419Z,14.48
2022-12-24T08:31:46.100Z,13.77
2022-12-24T08:32:49.594Z,12.80
2022-12-24T08:33:52.237Z,13.80
2022-12-24T08:35:02.763Z,13.20
2022-12-24T08:36:06.456Z,13.15
2022-12-24T08:37:09.112Z,13.82
2022-12-24T08:38:12.813Z,13.60
2022-12-24T08:39:16.626Z,14.13
2022-12-24T08:40:26.789Z,14.07
2022-12-24T08:41:29.350Z,12.13
2022-12-24T08:42:40.082Z,13.43
2022-12-24T08:43:42.762Z,11.20
2022-12-24T08:44:46.299Z,12.27
2022-12-24T08:46:08.819Z,12.50
2022-12-24T08:47:12.287Z,10.60
2022-12-24T08:48:14.795Z,9.70
2022-12-24T08:49:24.793Z,11.35
2022-12-24T08:50:28.607Z,11.25
2022-12-24T08:51:32.330Z,10.43
2022-12-24T08:52:34.926Z,10.50
2022-12-24T08:53:38.583Z,9.90
2022-12-24T08:54:48.830Z,10.48
2022-12-24T08:55:58.866Z,9.68
2022-12-24T08:57:01.451Z,9.05
2022-12-24T08:58:04.986Z,8.70
2022-12-24T08:59:08.515Z,8.98
2022-12-24T09:00:13.097Z,9.32
2022-12-24T09:01:25.948Z,8.55
2022-12-24T09:02:29.517Z,9.80
2022-12-24T09:03:32.107Z,8.88
2022-12-24T09:04:35.574Z,9.95
2022-12-24T09:05:40.855Z,9.27
2022-12-24T09:06:50.859Z,8.85
2022-12-24T09:07:53.556Z,9.13
2022-12-24T09:08:57.022Z,9.00
2022-12-24T09:10:00.897Z,9.45
2022-12-24T09:11:05.262Z,10.52
2022-12-24T09:12:14.823Z,10.70
2022-12-24T09:13:18.926Z,11.45
2022-12-24T09:14:21.582Z,11.13
2022-12-24T09:15:26.332Z,10.80
2022-12-24T09:16:29.347Z,11.90
2022-12-24T09:17:39.969Z,13.00
2022-12-24T09:18:43.067Z,13.05
2022-12-24T09:19:46.570Z,16.58
2022-12-24T09:20:55.417Z,17.20
2022-12-24T09:22:07.021Z,16.05
2022-12-24T09:23:15.783Z,15.18
2022-12-24T09:24:19.375Z,15.43
2022-12-24T09:25:23.154Z,13.88
2022-12-24T09:26:27.562Z,14.25
2022-12-24T09:27:31.707Z,14.32
2022-12-24T09:28:41.806Z,12.05
2022-12-24T09:29:44.299Z,10.80
2022-12-24T09:30:48.400Z,9.25
2022-12-24T09:31:51.047Z,8.57
2022-12-24T09:32:54.665Z,9.18
2022-12-24T09:34:03.785Z,9.18
2022-12-24T09:35:07.930Z,6.82
2022-12-24T09:36:10.499Z,6.47
2022-12-24T09:37:13.946Z,6.15
2022-12-24T09:38:16.574Z,6.30
2022-12-24T09:39:26.856Z,5.63
2022-12-24T09:40:34.783Z,5.35
2022-12-24T09:41:44.425Z,5.45
2022-12-24T09:42:50.557Z,5.10
2022-12-24T09:43:57.574Z,4.95
2022-12-24T09:45:09.914Z,5.47
2022-12-24T09:46:23.416Z,4.32
2022-12-24T09:47:28.929Z,5.50
2022-12-24T09:48:41.388Z,4.68
2022-12-24T09:49:46.180Z,4.05
2022-12-24T09:50:53.564Z,4.13
2022-12-24T09:51:57.584Z,4.20
2022-12-24T09:53:03.623Z,5.45
2022-12-24T09:54:15.206Z,3.40
2022-12-24T09:55:22.513Z,3.20
2022-12-24T09:56:27.982Z,2.53
2022-12-24T09:57:33.836Z,2.80
2022-12-24T09:58:38.635Z,3.63
2022-12-24T09:59:50.804Z,3.60
2022-12-24T10:00:54.407Z,2.97
2022-12-24T10:02:03.949Z,2.88
2022-12-24T10:03:15.099Z,4.30
2022-12-24T10:04:20.046Z,4.72
2022-12-24T10:05:27.442Z,3.67
2022-12-24T10:06:33.273Z,2.22
2022-12-24T10:07:45.814Z,3.35
2022-12-24T10:08:55.565Z,2.83
2022-12-24T10:10:08.793Z,2.70
2022-12-24T10:11:16.730Z,3.08
2022-12-24T10:12:23.958Z,2.63
2022-12-24T10:13:32.997Z,2.53
2022-12-24T10:14:50.835Z,2.40
2022-12-24T10:15:56.897Z,4.05
2022-12-24T10:17:10.881Z,4.50
2022-12-24T10:18:21.880Z,3.03
2022-12-24T10:19:27.357Z,3.13
2022-12-24T10:20:37.457Z,2.28
2022-12-24T10:21:46.157Z,2.30
2022-12-24T10:22:59.881Z,2.95
2022-12-24T10:24:08.170Z,1.92
2022-12-24T10:25:14.986Z,2.33
2022-12-24T10:26:22.351Z,2.03
2022-12-24T10:27:29.166Z,2.67
2022-12-24T10:28:40.984Z,2.50
2022-12-24T10:29:44.822Z,4.00
2022-12-24T10:30:50.447Z,3.50
2022-12-24T10:31:56.690Z,2.58
2022-12-24T10:33:00.151Z,1.58
2022-12-24T10:34:09.852Z,2.70
2022-12-24T10:35:20.737Z,2.70
2022-12-24T10:36:26.878Z,2.20
2022-12-24T10:37:30.200Z,2.47
2022-12-24T10:38:34.189Z,2.55
2022-12-24T10:39:43.930Z,4.45
2022-12-24T10:40:48.787Z,3.45
2022-12-24T10:41:53.397Z,2.65
2022-12-24T10:42:58.444Z,2.30
2022-12-24T10:44:07.858Z,1.80
2022-12-24T10:45:31.817Z,1.90
2022-12-24T10:46:55.847Z,2.13
2022-12-24T10:48:03.918Z,1.40
2022-12-24T10:49:14.854Z,1.40
2022-12-24T10:50:20.092Z,1.48
2022-12-24T10:51:25.455Z,2.00
2022-12-24T10:52:30.246Z,1.40
2022-12-24T10:53:38.950Z,0.90
2022-12-24T10:55:12.869Z,1.17
2022-12-24T10:56:16.819Z,0.70
2022-12-24T10:57:25.524Z,1.70
2022-12-24T10:58:30.478Z,1.70
2022-12-24T10:59:37.616Z,1.85
2022-12-24T11:00:47.809Z,1.90
2022-12-24T11:01:50.970Z,2.10
2022-12-24T11:03:13.951Z,3.03
2022-12-24T11:04:17.876Z,3.75
2022-12-24T11:05:31.477Z,3.55
2022-12-24T11:06:35.062Z,2.42
2022-12-24T11:07:37.769Z,2.58
2022-12-24T11:08:48.922Z,3.33
2022-12-24T11:09:56.368Z,5.30
2022-12-24T11:11:00.446Z,4.80
2022-12-24T11:12:08.943Z,2.97
2022-12-24T11:13:39.291Z,2.88
2022-12-24T11:14:46.943Z,3.92
2022-12-24T11:15:51.186Z,3.42
2022-12-24T11:17:01.826Z,2.80
2022-12-24T11:18:06.181Z,3.60
2022-12-24T11:19:27.825Z,3.38
2022-12-24T11:20:31.411Z,2.88
2022-12-24T11:21:36.412Z,2.90
2022-12-24T11:22:45.866Z,2.03
2022-12-24T11:23:51.544Z,1.80
2022-12-24T11:25:00.052Z,1.58
2022-12-24T11:26:03.728Z,1.27
2022-12-24T11:27:25.055Z,1.48
2022-12-24T11:28:36.791Z,1.52
2022-12-24T11:29:39.297Z,1.48
2022-12-24T11:30:44.318Z,1.70
2022-12-24T11:31:47.425Z,1.60
2022-12-24T11:32:51.936Z,1.67
2022-12-24T11:34:02.085Z,1.70
2022-12-24T11:35:06.971Z,1.73
2022-12-24T11:36:13.924Z,1.75
2022-12-24T11:37:24.811Z,1.30
2022-12-24T11:38:29.528Z,1.30
2022-12-24T11:39:40.225Z,1.40
2022-12-24T11:40:44.059Z,1.10
2022-12-24T11:41:53.813Z,1.20
2022-12-24T11:43:00.246Z,1.63
2022-12-24T11:44:07.808Z,1.30
2022-12-24T11:45:23.375Z,1.65
2022-12-24T11:46:47.936Z,1.42
2022-12-24T11:47:53.640Z,1.60
2022-12-24T11:49:08.167Z,1.65
2022-12-24T11:50:26.370Z,1.70
2022-12-24T11:51:35.861Z,1.77
2022-12-24T11:52:39.493Z,1.40
2022-12-24T11:53:43.319Z,1.58
2022-12-24T11:54:50.329Z,1.48
2022-12-24T11:55:55.070Z,1.80
2022-12-24T11:57:05.793Z,2.22
2022-12-24T11:58:18.576Z,1.63
2022-12-24T11:59:32.878Z,1.33
2022-12-24T12:00:36.357Z,1.90
2022-12-24T12:01:40.967Z,1.40
2022-12-24T12:02:45.256Z,1.52
2022-12-24T12:03:51.234Z,1.42
2022-12-24T12:05:01.823Z,1.50
2022-12-24T12:06:06.347Z,1.70
2022-12-24T12:07:15.197Z,2.50
2022-12-24T12:08:20.236Z,2.90
2022-12-24T12:09:25.131Z,2.67
2022-12-24T12:10:38.779Z,2.28
2022-12-24T12:11:44.120Z,2.17
2022-12-24T12:12:53.925Z,2.45
2022-12-24T12:13:59.643Z,2.35
2022-12-24T12:15:07.250Z,2.63
2022-12-24T12:16:22.847Z,2.00
2022-12-24T12:17:37.805Z,1.70
2022-12-24T12:18:42.033Z,1.50
2022-12-24T12:19:48.236Z,2.78
2022-12-24T12:20:54.444Z,3.80
2022-12-24T12:21:56.924Z,4.55
2022-12-24T12:23:07.806Z,3.55
2022-12-24T12:24:20.814Z,2.78
2022-12-24T12:25:25.215Z,2.13
2022-12-24T12:26:29.343Z,2.33
2022-12-24T12:27:33.901Z,2.28
2022-12-24T12:28:46.803Z,2.78
2022-12-24T12:29:52.426Z,3.47
2022-12-24T12:31:00.207Z,2.38
2022-12-24T12:32:05.265Z,3.30
2022-12-24T12:33:13.148Z,3.25
2022-12-24T12:34:25.820Z,2.40
2022-12-24T12:35:32.154Z,2.60
2022-12-24T12:36:35.905Z,2.85
2022-12-24T12:37:41.159Z,2.75
2022-12-24T12:38:44.546Z,3.15
2022-12-24T12:39:53.792Z,2.72
2022-12-24T12:41:03.636Z,2.83
2022-12-24T12:42:09.587Z,2.45
2022-12-24T12:43:17.077Z,2.30
2022-12-24T12:44:32.206Z,1.92
2022-12-24T12:45:47.793Z,2.05
2022-12-24T12:47:15.052Z,2.30
2022-12-24T12:48:36.098Z,2.20
2022-12-24T12:49:44.503Z,2.17
2022-12-24T12:50:58.814Z,2.42
2022-12-24T12:52:06.996Z,4.85
2022-12-24T12:53:22.625Z,4.75
2022-12-24T12:54:32.800Z,3.40
2022-12-24T12:55:40.094Z,3.30
2022-12-24T12:56:53.824Z,3.38
2022-12-24T12:57:59.049Z,3.10
2022-12-24T12:59:04.568Z,3.00
2022-12-24T13:00:08.027Z,2.70
2022-12-24T13:01:15.377Z,2.75
2022-12-24T13:02:46.945Z,2.03
2022-12-24T13:04:05.720Z,1.95
2022-12-24T13:05:26.875Z,2.67
2022-12-24T13:06:57.825Z,3.42
2022-12-24T13:08:19.820Z,5.25
2022-12-24T13:09:31.860Z,5.40
2022-12-24T13:10:55.863Z,4.50
2022-12-24T13:12:09.800Z,4.35
2022-12-24T13:13:24.971Z,5.95
2022-12-24T13:14:43.887Z,7.00
2022-12-24T13:15:55.498Z,8.38
2022-12-24T13:17:20.940Z,8.73
2022-12-24T13:18:43.835Z,9.05
2022-12-24T13:19:56.847Z,9.15
2022-12-24T13:20:59.477Z,9.40
2022-12-24T13:22:03.284Z,8.40
2022-12-24T13:23:19.848Z,8.18
2022-12-24T13:24:32.833Z,7.22
2022-12-24T13:25:38.735Z,7.15
2022-12-24T13:26:47.810Z,7.30
2022-12-24T13:27:51.251Z,7.20
2022-12-24T13:28:54.831Z,7.38
2022-12-24T13:30:01.049Z,7.55
2022-12-24T13:31:35.900Z,6.53
2022-12-24T13:32:39.732Z,6.32
2022-12-24T13:33:59.833Z,7.15
2022-12-24T13:35:03.313Z,6.85
2022-12-24T13:36:07.701Z,7.50
2022-12-24T13:37:27.848Z,7.82
2022-12-24T13:38:42.307Z,8.35
2022-12-24T13:40:03.544Z,10.32
2022-12-24T13:41:25.443Z,8.38
2022-12-24T13:42:49.917Z,7.30
2022-12-24T13:44:06.322Z,7.85
2022-12-24T13:45:28.719Z,8.60
2022-12-24T13:47:02.858Z,8.63
2022-12-24T13:48:22.825Z,6.13
2022-12-24T13:49:31.713Z,5.88
2022-12-24T13:50:37.977Z,6.20
2022-12-24T13:51:41.424Z,7.10
2022-12-24T13:52:52.463Z,8.85
2022-12-24T13:54:05.836Z,7.68
2022-12-24T13:55:19.040Z,6.68
2022-12-24T13:56:24.668Z,6.75
2022-12-24T13:57:34.345Z,6.88
2022-12-24T13:58:46.846Z,6.82
2022-12-24T13:59:57.063Z,6.97
2022-12-24T14:01:02.314Z,7.93
2022-12-24T14:02:05.413Z,8.40
2022-12-24T14:03:21.999Z,7.82
2022-12-24T14:04:34.862Z,8.18
2022-12-24T14:05:39.256Z,8.60
2022-12-24T14:06:43.984Z,8.98
2022-12-24T14:07:48.759Z,9.45
2022-12-24T14:08:53.395Z,8.63
2022-12-24T14:10:04.973Z,8.77
2022-12-24T14:11:10.353Z,8.70
2022-12-24T14:12:18.725Z,9.68
2022-12-24T14:13:38.891Z,11.02
2022-12-24T14:14:43.657Z,9.82
2022-12-24T14:16:13.163Z,10.02
2022-12-24T14:17:23.649Z,9.20
2022-12-24T14:18:26.202Z,9.35
2022-12-24T14:19:37.361Z,10.27
2022-12-24T14:20:40.324Z,9.98
2022-12-24T14:21:52.872Z,9.40
2022-12-24T14:22:57.006Z,9.77
2022-12-24T14:24:02.946Z,8.98
2022-12-24T14:25:12.457Z,10.10
2022-12-24T14:26:17.834Z,9.63
2022-12-24T14:27:28.835Z,9.02
2022-12-24T14:28:35.189Z,8.88
2022-12-24T14:29:41.558Z,9.50
2022-12-24T14:30:44.056Z,9.38
2022-12-24T14:31:53.248Z,9.77
2022-12-24T14:33:02.845Z,10.15
2022-12-24T14:34:10.540Z,10.75
2022-12-24T14:35:16.343Z,10.82
2022-12-24T14:36:22.273Z,10.73
2022-12-24T14:37:34.761Z,10.55
2022-12-24T14:38:38.954Z,12.15
2022-12-24T14:39:44.419Z,13.10
2022-12-24T14:40:54.954Z,13.55
2022-12-24T14:42:12.846Z,12.60